CheckWX is a tool to help pilots better visualize weather data.  It is not intended as a substitute for an official pre-flight weather briefing.

01:26:10 UTC

KRDG TAF
Reading Regional / Carl A Spaatz Field Airport
Reading, Pennsylvania, USA
KRDG 212321Z 2200/2224 32003KT P6SM BKN250 FM220600 VRB02KT P6SM SCT250 FM221500 24005KT P6SM SKC

Jan-22@
00:00 UTC

Jan-22 @ 00:00 UTC

Jan-22@
06:00 UTC

Jan-22 @ 06:00 UTC

KRDG 212321Z 2200/2224 32003KT P6SM BKN250
Wind
  • 320° at 3 KTS
Cloud Levels
  • Broken at 25,000' AGL

Jan-22@
06:00 UTC

Jan-22 @ 06:00 UTC

Jan-22@
15:00 UTC

Jan-22 @ 15:00 UTC

FM220600 VRB02KT P6SM SCT250

From

From Standard forecast or significant change

Wind
  • Variable at 2 KTS
Cloud Levels
  • Scattered at 25,000' AGL

Jan-22@
15:00 UTC

Jan-22 @ 15:00 UTC

Jan-23@
00:00 UTC

Jan-23 @ 00:00 UTC

FM221500 24005KT P6SM SKC

From

From Standard forecast or significant change

Wind
  • 240° at 5 KTS
Cloud Levels
  • Clear skies